sensor_id;sensor_type;location;lat;lon;timestamp;temperature;humidity
14946;DHT22;7567;50.916;6.900;2023-07-16T00:01:46;20.00;3.80
14946;DHT22;7567;50.916;6.900;2023-07-16T00:04:12;19.90;1.00
14946;DHT22;7567;50.916;6.900;2023-07-16T00:06:38;20.00;1.00
14946;DHT22;7567;50.916;6.900;2023-07-16T00:09:04;19.90;1.00
14946;DHT22;7567;50.916;6.900;2023-07-16T00:11:29;19.90;7.60
14946;DHT22;7567;50.916;6.900;2023-07-16T00:13:55;20.00;1.00
14946;DHT22;7567;50.916;6.900;2023-07-16T00:16:21;19.90;1.00
14946;DHT22;7567;50.916;6.900;2023-07-16T00:18:47;19.80;6.30
14946;DHT22;7567;50.916;6.900;2023-07-16T00:21:13;19.80;15.40
14946;DHT22;7567;50.916;6.900;2023-07-16T00:23:39;19.70;26.20
14946;DHT22;7567;50.916;6.900;2023-07-16T00:26:05;19.70;29.70
14946;DHT22;7567;50.916;6.900;2023-07-16T00:28:30;19.50;62.30
14946;DHT22;7567;50.916;6.900;2023-07-16T00:30:56;19.50;91.60
14946;DHT22;7567;50.916;6.900;2023-07-16T00:33:22;19.40;93.70
14946;DHT22;7567;50.916;6.900;2023-07-16T00:35:49;19.30;99.90
14946;DHT22;7567;50.916;6.900;2023-07-16T00:38:18;19.30;94.10
14946;DHT22;7567;50.916;6.900;2023-07-16T00:40:48;19.30;99.90
14946;DHT22;7567;50.916;6.900;2023-07-16T00:43:14;19.20;99.90
14946;DHT22;7567;50.916;6.900;2023-07-16T00:45:40;19.10;99.90
14946;DHT22;7567;50.916;6.900;2023-07-16T00:48:07;19.20;99.90
14946;DHT22;7567;50.916;6.900;2023-07-16T00:50:34;19.10;99.90
14946;DHT22;7567;50.916;6.900;2023-07-16T00:53:08;19.10;99.90
14946;DHT22;7567;50.916;6.900;2023-07-16T00:55:37;19.10;91.90
14946;DHT22;7567;50.916;6.900;2023-07-16T00:58:05;19.10;99.90
14946;DHT22;7567;50.916;6.900;2023-07-16T01:00:35;19.00;99.90
14946;DHT22;7567;50.916;6.900;2023-07-16T01:03:12;19.00;99.90
14946;DHT22;7567;50.916;6.900;2023-07-16T01:08:42;18.80;99.90
14946;DHT22;7567;50.916;6.900;2023-07-16T01:11:10;18.80;99.90
14946;DHT22;7567;50.916;6.900;2023-07-16T01:13:37;18.60;99.90
14946;DHT22;7567;50.916;6.900;2023-07-16T01:16:03;18.60;99.90
14946;DHT22;7567;50.916;6.900;2023-07-16T01:18:29;18.50;99.90
14946;DHT22;7567;50.916;6.900;2023-07-16T01:20:54;18.50;99.90
14946;DHT22;7567;50.916;6.900;2023-07-16T01:23:39;18.50;99.90
14946;DHT22;7567;50.916;6.900;2023-07-16T01:29:04;18.40;99.90
14946;DHT22;7567;50.916;6.900;2023-07-16T01:31:32;18.50;99.90
14946;DHT22;7567;50.916;6.900;2023-07-16T01:33:59;18.50;99.90
14946;DHT22;7567;50.916;6.900;2023-07-16T01:36:26;18.40;99.90
14946;DHT22;7567;50.916;6.900;2023-07-16T01:38:53;18.40;99.90
14946;DHT22;7567;50.916;6.900;2023-07-16T01:41:19;18.40;99.90
14946;DHT22;7567;50.916;6.900;2023-07-16T01:43:45;18.40;99.90
14946;DHT22;7567;50.916;6.900;2023-07-16T01:46:11;18.40;99.90
14946;DHT22;7567;50.916;6.900;2023-07-16T01:48:38;18.50;99.90
14946;DHT22;7567;50.916;6.900;2023-07-16T01:51:04;18.50;99.90
14946;DHT22;7567;50.916;6.900;2023-07-16T01:53:30;18.30;99.90
14946;DHT22;7567;50.916;6.900;2023-07-16T01:55:57;18.30;99.90
14946;DHT22;7567;50.916;6.900;2023-07-16T01:58:23;18.40;99.90
14946;DHT22;7567;50.916;6.900;2023-07-16T02:00:50;18.40;99.90
14946;DHT22;7567;50.916;6.900;2023-07-16T02:03:16;18.30;99.90
14946;DHT22;7567;50.916;6.900;2023-07-16T02:05:41;18.30;99.90
14946;DHT22;7567;50.916;6.900;2023-07-16T02:08:07;18.40;95.90
14946;DHT22;7567;50.916;6.900;2023-07-16T02:10:33;18.30;99.90
14946;DHT22;7567;50.916;6.900;2023-07-16T02:12:59;18.20;99.90
14946;DHT22;7567;50.916;6.900;2023-07-16T02:15:25;18.30;99.90
14946;DHT22;7567;50.916;6.900;2023-07-16T02:17:50;18.30;97.30
14946;DHT22;7567;50.916;6.900;2023-07-16T02:20:16;18.30;90.30
14946;DHT22;7567;50.916;6.900;2023-07-16T02:22:42;18.20;94.00
14946;DHT22;7567;50.916;6.900;2023-07-16T02:25:08;18.40;49.80
14946;DHT22;7567;50.916;6.900;2023-07-16T02:27:33;18.40;49.70
14946;DHT22;7567;50.916;6.900;2023-07-16T02:29:59;18.40;37.00
14946;DHT22;7567;50.916;6.900;2023-07-16T02:32:25;18.30;51.70
14946;DHT22;7567;50.916;6.900;2023-07-16T02:34:51;18.30;53.00
14946;DHT22;7567;50.916;6.900;2023-07-16T02:37:16;18.20;50.10
14946;DHT22;7567;50.916;6.900;2023-07-16T02:39:44;18.20;63.20
14946;DHT22;7567;50.916;6.900;2023-07-16T02:42:11;18.10;63.50
14946;DHT22;7567;50.916;6.900;2023-07-16T02:44:37;18.10;66.30
14946;DHT22;7567;50.916;6.900;2023-07-16T02:47:07;18.20;57.80
14946;DHT22;7567;50.916;6.900;2023-07-16T02:49:33;18.10;52.50
14946;DHT22;7567;50.916;6.900;2023-07-16T02:51:59;18.10;47.30
14946;DHT22;7567;50.916;6.900;2023-07-16T02:54:25;17.90;26.90
14946;DHT22;7567;50.916;6.900;2023-07-16T02:56:50;18.00;51.30
14946;DHT22;7567;50.916;6.900;2023-07-16T02:59:16;17.90;56.40
14946;DHT22;7567;50.916;6.900;2023-07-16T03:01:42;17.90;48.50
14946;DHT22;7567;50.916;6.900;2023-07-16T03:04:08;17.90;45.00
14946;DHT22;7567;50.916;6.900;2023-07-16T03:06:34;17.80;69.90
14946;DHT22;7567;50.916;6.900;2023-07-16T03:08:59;17.90;40.60
14946;DHT22;7567;50.916;6.900;2023-07-16T03:11:25;17.90;14.70
14946;DHT22;7567;50.916;6.900;2023-07-16T03:13:51;17.80;50.40
14946;DHT22;7567;50.916;6.900;2023-07-16T03:16:17;17.90;28.30
14946;DHT22;7567;50.916;6.900;2023-07-16T03:18:44;17.70;37.00
14946;DHT22;7567;50.916;6.900;2023-07-16T03:21:10;17.70;55.10
14946;DHT22;7567;50.916;6.900;2023-07-16T03:23:36;17.60;30.60
14946;DHT22;7567;50.916;6.900;2023-07-16T03:26:02;17.70;55.60
14946;DHT22;7567;50.916;6.900;2023-07-16T03:28:27;17.70;17.30
14946;DHT22;7567;50.916;6.900;2023-07-16T03:30:53;17.60;31.70
14946;DHT22;7567;50.916;6.900;2023-07-16T03:33:19;17.60;12.40
14946;DHT22;7567;50.916;6.900;2023-07-16T03:35:46;17.60;58.00
14946;DHT22;7567;50.916;6.900;2023-07-16T03:38:13;17.60;27.30
14946;DHT22;7567;50.916;6.900;2023-07-16T03:40:39;17.50;59.40
14946;DHT22;7567;50.916;6.900;2023-07-16T03:43:05;17.50;53.90
14946;DHT22;7567;50.916;6.900;2023-07-16T03:45:31;17.30;17.30
14946;DHT22;7567;50.916;6.900;2023-07-16T03:47:56;17.40;45.50
14946;DHT22;7567;50.916;6.900;2023-07-16T03:50:22;17.40;99.90
14946;DHT22;7567;50.916;6.900;2023-07-16T03:52:48;17.30;72.60
14946;DHT22;7567;50.916;6.900;2023-07-16T03:55:14;17.20;99.90
14946;DHT22;7567;50.916;6.900;2023-07-16T03:57:40;17.10;99.90
14946;DHT22;7567;50.916;6.900;2023-07-16T04:00:06;17.10;87.60
14946;DHT22;7567;50.916;6.900;2023-07-16T04:02:35;17.10;82.10
14946;DHT22;7567;50.916;6.900;2023-07-16T04:05:01;17.00;99.90
14946;DHT22;7567;50.916;6.900;2023-07-16T04:07:27;17.10;99.90
14946;DHT22;7567;50.916;6.900;2023-07-16T04:09:53;17.00;99.90
14946;DHT22;7567;50.916;6.900;2023-07-16T04:12:19;17.00;99.90
14946;DHT22;7567;50.916;6.900;2023-07-16T04:14:45;17.00;99.90
14946;DHT22;7567;50.916;6.900;2023-07-16T04:17:12;16.90;99.90
14946;DHT22;7567;50.916;6.900;2023-07-16T04:19:38;16.90;99.90
14946;DHT22;7567;50.916;6.900;2023-07-16T04:22:04;16.90;99.90
14946;DHT22;7567;50.916;6.900;2023-07-16T04:24:30;16.90;99.90
14946;DHT22;7567;50.916;6.900;2023-07-16T04:26:57;16.80;99.90
14946;DHT22;7567;50.916;6.900;2023-07-16T04:29:23;16.80;99.90
14946;DHT22;7567;50.916;6.900;2023-07-16T04:31:48;16.80;99.90
14946;DHT22;7567;50.916;6.900;2023-07-16T04:34:14;16.70;99.90
14946;DHT22;7567;50.916;6.900;2023-07-16T04:36:42;16.80;99.90
14946;DHT22;7567;50.916;6.900;2023-07-16T04:39:08;16.80;99.90
14946;DHT22;7567;50.916;6.900;2023-07-16T04:41:34;16.90;99.90
14946;DHT22;7567;50.916;6.900;2023-07-16T04:43:59;17.00;99.90
14946;DHT22;7567;50.916;6.900;2023-07-16T04:46:25;17.10;99.90
14946;DHT22;7567;50.916;6.900;2023-07-16T04:48:51;17.20;99.90
14946;DHT22;7567;50.916;6.900;2023-07-16T04:51:16;17.20;99.90
14946;DHT22;7567;50.916;6.900;2023-07-16T04:53:42;17.20;99.90
14946;DHT22;7567;50.916;6.900;2023-07-16T04:56:15;17.30;99.90
14946;DHT22;7567;50.916;6.900;2023-07-16T04:58:42;17.40;99.90
14946;DHT22;7567;50.916;6.900;2023-07-16T05:01:08;17.40;99.90
14946;DHT22;7567;50.916;6.900;2023-07-16T05:03:35;17.50;99.90
14946;DHT22;7567;50.916;6.900;2023-07-16T05:06:01;17.50;42.90
14946;DHT22;7567;50.916;6.900;2023-07-16T05:08:27;17.60;23.40
14946;DHT22;7567;50.916;6.900;2023-07-16T05:10:52;17.60;11.10
14946;DHT22;7567;50.916;6.900;2023-07-16T05:13:18;17.70;1.00
14946;DHT22;7567;50.916;6.900;2023-07-16T05:15:44;17.90;1.00
14946;DHT22;7567;50.916;6.900;2023-07-16T05:18:10;17.90;1.00
14946;DHT22;7567;50.916;6.900;2023-07-16T05:20:36;17.90;1.00
14946;DHT22;7567;50.916;6.900;2023-07-16T05:23:02;17.90;1.00
14946;DHT22;7567;50.916;6.900;2023-07-16T05:25:28;18.00;1.00
14946;DHT22;7567;50.916;6.900;2023-07-16T05:27:54;18.00;1.00
14946;DHT22;7567;50.916;6.900;2023-07-16T05:30:20;18.00;1.00
14946;DHT22;7567;50.916;6.900;2023-07-16T05:32:46;18.10;1.00
14946;DHT22;7567;50.916;6.900;2023-07-16T05:35:11;18.10;1.00
14946;DHT22;7567;50.916;6.900;2023-07-16T05:37:37;18.10;1.00
14946;DHT22;7567;50.916;6.900;2023-07-16T05:40:03;18.10;1.00
14946;DHT22;7567;50.916;6.900;2023-07-16T05:42:29;18.20;1.00
14946;DHT22;7567;50.916;6.900;2023-07-16T05:44:55;18.30;1.00
14946;DHT22;7567;50.916;6.900;2023-07-16T05:47:21;18.30;1.00
14946;DHT22;7567;50.916;6.900;2023-07-16T05:49:47;18.40;1.00
14946;DHT22;7567;50.916;6.900;2023-07-16T05:52:13;18.40;1.00
14946;DHT22;7567;50.916;6.900;2023-07-16T05:54:39;18.40;1.00
14946;DHT22;7567;50.916;6.900;2023-07-16T05:57:05;18.50;1.00
14946;DHT22;7567;50.916;6.900;2023-07-16T05:59:31;18.50;1.00
14946;DHT22;7567;50.916;6.900;2023-07-16T06:02:02;18.70;1.00
14946;DHT22;7567;50.916;6.900;2023-07-16T06:04:27;18.80;1.00
14946;DHT22;7567;50.916;6.900;2023-07-16T06:06:53;19.00;1.00
14946;DHT22;7567;50.916;6.900;2023-07-16T06:09:19;19.10;1.00
14946;DHT22;7567;50.916;6.900;2023-07-16T06:11:48;19.30;1.00
14946;DHT22;7567;50.916;6.900;2023-07-16T06:14:14;19.50;1.00
14946;DHT22;7567;50.916;6.900;2023-07-16T06:16:40;19.50;1.00
14946;DHT22;7567;50.916;6.900;2023-07-16T06:19:06;19.70;1.00
14946;DHT22;7567;50.916;6.900;2023-07-16T06:21:31;19.80;1.00
14946;DHT22;7567;50.916;6.900;2023-07-16T06:23:57;19.90;1.00
14946;DHT22;7567;50.916;6.900;2023-07-16T06:26:23;20.00;1.00
14946;DHT22;7567;50.916;6.900;2023-07-16T06:28:49;20.10;1.00
14946;DHT22;7567;50.916;6.900;2023-07-16T06:31:18;20.20;1.00
14946;DHT22;7567;50.916;6.900;2023-07-16T06:33:44;20.30;1.00
14946;DHT22;7567;50.916;6.900;2023-07-16T06:36:12;20.40;1.00
14946;DHT22;7567;50.916;6.900;2023-07-16T06:38:38;20.50;1.00
14946;DHT22;7567;50.916;6.900;2023-07-16T06:41:04;20.50;99.90
14946;DHT22;7567;50.916;6.900;2023-07-16T06:43:30;20.50;99.90
14946;DHT22;7567;50.916;6.900;2023-07-16T06:45:56;20.60;1.00
14946;DHT22;7567;50.916;6.900;2023-07-16T06:48:22;20.60;99.90
14946;DHT22;7567;50.916;6.900;2023-07-16T06:50:47;20.70;99.90
14946;DHT22;7567;50.916;6.900;2023-07-16T06:53:14;20.70;99.90
14946;DHT22;7567;50.916;6.900;2023-07-16T06:55:40;21.00;99.90
14946;DHT22;7567;50.916;6.900;2023-07-16T06:58:10;21.00;99.90
14946;DHT22;7567;50.916;6.900;2023-07-16T07:00:36;20.90;99.90
14946;DHT22;7567;50.916;6.900;2023-07-16T07:03:02;21.00;99.90
14946;DHT22;7567;50.916;6.900;2023-07-16T07:05:28;21.10;99.90
14946;DHT22;7567;50.916;6.900;2023-07-16T07:07:53;21.10;99.90
14946;DHT22;7567;50.916;6.900;2023-07-16T07:10:19;21.10;24.00
14946;DHT22;7567;50.916;6.900;2023-07-16T07:12:45;21.20;66.60
14946;DHT22;7567;50.916;6.900;2023-07-16T07:15:11;21.20;1.00
14946;DHT22;7567;50.916;6.900;2023-07-16T07:17:37;21.40;15.90
14946;DHT22;7567;50.916;6.900;2023-07-16T07:20:04;21.70;1.00
14946;DHT22;7567;50.916;6.900;2023-07-16T07:22:33;21.80;1.00
14946;DHT22;7567;50.916;6.900;2023-07-16T07:24:59;22.50;1.00
14946;DHT22;7567;50.916;6.900;2023-07-16T07:27:24;22.50;99.90
14946;DHT22;7567;50.916;6.900;2023-07-16T07:29:50;22.70;1.00
14946;DHT22;7567;50.916;6.900;2023-07-16T07:32:21;22.80;1.00
14946;DHT22;7567;50.916;6.900;2023-07-16T07:34:47;22.50;1.00
14946;DHT22;7567;50.916;6.900;2023-07-16T07:37:12;22.50;1.00
14946;DHT22;7567;50.916;6.900;2023-07-16T07:39:38;22.40;99.90
14946;DHT22;7567;50.916;6.900;2023-07-16T07:42:05;22.40;99.90
14946;DHT22;7567;50.916;6.900;2023-07-16T07:44:31;22.70;28.90
14946;DHT22;7567;50.916;6.900;2023-07-16T07:46:57;22.60;99.90
14946;DHT22;7567;50.916;6.900;2023-07-16T07:49:23;22.90;1.00
14946;DHT22;7567;50.916;6.900;2023-07-16T07:51:49;23.00;30.50
14946;DHT22;7567;50.916;6.900;2023-07-16T07:54:15;23.20;99.90
14946;DHT22;7567;50.916;6.900;2023-07-16T07:56:41;23.20;99.90
14946;DHT22;7567;50.916;6.900;2023-07-16T07:59:07;23.10;1.00
14946;DHT22;7567;50.916;6.900;2023-07-16T08:01:33;22.90;99.90
14946;DHT22;7567;50.916;6.900;2023-07-16T08:03:59;23.30;1.00
14946;DHT22;7567;50.916;6.900;2023-07-16T08:06:25;23.60;1.00
14946;DHT22;7567;50.916;6.900;2023-07-16T08:08:51;23.80;1.00
14946;DHT22;7567;50.916;6.900;2023-07-16T08:11:17;23.60;1.00
14946;DHT22;7567;50.916;6.900;2023-07-16T08:13:43;24.30;99.90
14946;DHT22;7567;50.916;6.900;2023-07-16T08:16:09;24.30;1.00
14946;DHT22;7567;50.916;6.900;2023-07-16T08:18:35;24.10;1.00
14946;DHT22;7567;50.916;6.900;2023-07-16T08:21:01;24.10;1.00
14946;DHT22;7567;50.916;6.900;2023-07-16T08:23:26;23.90;56.80
14946;DHT22;7567;50.916;6.900;2023-07-16T08:25:52;23.90;1.00
14946;DHT22;7567;50.916;6.900;2023-07-16T08:28:18;24.20;99.90
14946;DHT22;7567;50.916;6.900;2023-07-16T08:30:46;24.10;1.00
14946;DHT22;7567;50.916;6.900;2023-07-16T08:33:12;24.20;1.00
14946;DHT22;7567;50.916;6.900;2023-07-16T08:35:40;24.50;1.00
14946;DHT22;7567;50.916;6.900;2023-07-16T08:38:06;24.10;99.90
14946;DHT22;7567;50.916;6.900;2023-07-16T08:40:38;24.20;1.00
14946;DHT22;7567;50.916;6.900;2023-07-16T08:43:06;24.20;99.90
14946;DHT22;7567;50.916;6.900;2023-07-16T08:45:39;24.30;1.00
14946;DHT22;7567;50.916;6.900;2023-07-16T08:48:12;24.80;99.90
14946;DHT22;7567;50.916;6.900;2023-07-16T08:50:38;25.00;1.00
14946;DHT22;7567;50.916;6.900;2023-07-16T08:53:05;24.80;1.00
14946;DHT22;7567;50.916;6.900;2023-07-16T08:55:31;24.80;1.00
14946;DHT22;7567;50.916;6.900;2023-07-16T08:57:57;24.90;99.90
14946;DHT22;7567;50.916;6.900;2023-07-16T09:00:25;25.10;1.00
14946;DHT22;7567;50.916;6.900;2023-07-16T09:02:55;25.30;99.90
14946;DHT22;7567;50.916;6.900;2023-07-16T09:05:21;25.20;99.90
14946;DHT22;7567;50.916;6.900;2023-07-16T09:07:50;24.70;1.00
14946;DHT22;7567;50.916;6.900;2023-07-16T09:10:16;25.10;1.00
14946;DHT22;7567;50.916;6.900;2023-07-16T09:12:44;24.90;1.00
14946;DHT22;7567;50.916;6.900;2023-07-16T09:15:11;24.60;1.00
14946;DHT22;7567;50.916;6.900;2023-07-16T09:17:38;24.50;1.00
14946;DHT22;7567;50.916;6.900;2023-07-16T09:20:04;24.80;99.90
14946;DHT22;7567;50.916;6.900;2023-07-16T09:22:33;25.00;99.90
14946;DHT22;7567;50.916;6.900;2023-07-16T09:25:00;25.30;1.00
14946;DHT22;7567;50.916;6.900;2023-07-16T09:27:30;25.50;99.90
14946;DHT22;7567;50.916;6.900;2023-07-16T09:29:56;25.40;99.90
14946;DHT22;7567;50.916;6.900;2023-07-16T09:32:36;25.70;18.50
14946;DHT22;7567;50.916;6.900;2023-07-16T09:35:10;25.60;99.90
14946;DHT22;7567;50.916;6.900;2023-07-16T09:37:39;26.00;1.00
14946;DHT22;7567;50.916;6.900;2023-07-16T09:40:06;26.10;99.90
14946;DHT22;7567;50.916;6.900;2023-07-16T09:42:42;26.50;1.00
14946;DHT22;7567;50.916;6.900;2023-07-16T09:45:16;26.30;95.10
14946;DHT22;7567;50.916;6.900;2023-07-16T09:47:42;26.30;1.00
14946;DHT22;7567;50.916;6.900;2023-07-16T09:50:08;26.60;99.90
14946;DHT22;7567;50.916;6.900;2023-07-16T09:52:34;26.70;1.00
14946;DHT22;7567;50.916;6.900;2023-07-16T09:55:04;26.30;1.00
14946;DHT22;7567;50.916;6.900;2023-07-16T09:57:38;26.00;1.00
14946;DHT22;7567;50.916;6.900;2023-07-16T10:00:07;25.80;1.00
14946;DHT22;7567;50.916;6.900;2023-07-16T10:02:38;25.90;99.90
14946;DHT22;7567;50.916;6.900;2023-07-16T10:07:40;26.20;99.90
14946;DHT22;7567;50.916;6.900;2023-07-16T10:10:10;26.50;99.90
14946;DHT22;7567;50.916;6.900;2023-07-16T10:12:37;26.50;1.00
14946;DHT22;7567;50.916;6.900;2023-07-16T10:15:05;25.90;99.90
14946;DHT22;7567;50.916;6.900;2023-07-16T10:17:32;25.80;99.90
14946;DHT22;7567;50.916;6.900;2023-07-16T10:20:08;26.20;1.00
14946;DHT22;7567;50.916;6.900;2023-07-16T10:22:46;26.50;1.00
14946;DHT22;7567;50.916;6.900;2023-07-16T10:27:48;26.80;1.00
14946;DHT22;7567;50.916;6.900;2023-07-16T10:30:15;26.80;1.00
14946;DHT22;7567;50.916;6.900;2023-07-16T10:32:41;26.70;99.90
14946;DHT22;7567;50.916;6.900;2023-07-16T10:35:08;26.50;1.00
14946;DHT22;7567;50.916;6.900;2023-07-16T10:37:35;26.40;1.00
14946;DHT22;7567;50.916;6.900;2023-07-16T10:40:01;26.70;1.00
14946;DHT22;7567;50.916;6.900;2023-07-16T10:42:29;26.80;1.00
14946;DHT22;7567;50.916;6.900;2023-07-16T10:44:58;26.50;1.00
14946;DHT22;7567;50.916;6.900;2023-07-16T10:47:32;26.30;1.00
14946;DHT22;7567;50.916;6.900;2023-07-16T10:49:58;26.00;1.00
14946;DHT22;7567;50.916;6.900;2023-07-16T10:52:25;26.00;20.20
14946;DHT22;7567;50.916;6.900;2023-07-16T10:54:52;26.10;17.20
14946;DHT22;7567;50.916;6.900;2023-07-16T10:57:23;25.90;1.00
14946;DHT22;7567;50.916;6.900;2023-07-16T10:59:51;25.90;99.90
14946;DHT22;7567;50.916;6.900;2023-07-16T11:02:17;26.10;99.90
14946;DHT22;7567;50.916;6.900;2023-07-16T11:04:45;26.00;99.90
14946;DHT22;7567;50.916;6.900;2023-07-16T11:07:12;25.90;99.90
14946;DHT22;7567;50.916;6.900;2023-07-16T11:09:53;25.90;1.00
14946;DHT22;7567;50.916;6.900;2023-07-16T11:12:22;26.20;1.00
14946;DHT22;7567;50.916;6.900;2023-07-16T11:14:54;26.80;99.90
14946;DHT22;7567;50.916;6.900;2023-07-16T11:17:22;26.50;1.00
14946;DHT22;7567;50.916;6.900;2023-07-16T11:19:50;26.20;1.00
14946;DHT22;7567;50.916;6.900;2023-07-16T11:22:17;26.40;1.00
14946;DHT22;7567;50.916;6.900;2023-07-16T11:24:47;26.50;1.00
14946;DHT22;7567;50.916;6.900;2023-07-16T11:27:17;26.70;1.00
14946;DHT22;7567;50.916;6.900;2023-07-16T11:29:47;26.40;1.00
14946;DHT22;7567;50.916;6.900;2023-07-16T11:32:25;26.60;99.90
14946;DHT22;7567;50.916;6.900;2023-07-16T11:34:55;26.60;90.80
14946;DHT22;7567;50.916;6.900;2023-07-16T11:37:21;26.20;1.00
14946;DHT22;7567;50.916;6.900;2023-07-16T11:39:48;26.20;99.90
14946;DHT22;7567;50.916;6.900;2023-07-16T11:42:18;26.30;1.00
14946;DHT22;7567;50.916;6.900;2023-07-16T11:44:49;26.30;1.00
14946;DHT22;7567;50.916;6.900;2023-07-16T11:47:14;26.10;1.00
14946;DHT22;7567;50.916;6.900;2023-07-16T11:49:40;25.80;99.90
14946;DHT22;7567;50.916;6.900;2023-07-16T11:52:07;25.90;99.90
14946;DHT22;7567;50.916;6.900;2023-07-16T11:54:33;26.20;99.90
14946;DHT22;7567;50.916;6.900;2023-07-16T11:56:58;26.60;99.90
14946;DHT22;7567;50.916;6.900;2023-07-16T11:59:24;26.40;98.70
14946;DHT22;7567;50.916;6.900;2023-07-16T12:01:50;26.10;99.90
14946;DHT22;7567;50.916;6.900;2023-07-16T12:04:19;25.90;52.10
14946;DHT22;7567;50.916;6.900;2023-07-16T12:06:46;25.90;1.00
14946;DHT22;7567;50.916;6.900;2023-07-16T12:09:12;26.10;99.90
14946;DHT22;7567;50.916;6.900;2023-07-16T12:11:38;26.00;1.00
14946;DHT22;7567;50.916;6.900;2023-07-16T12:14:07;25.80;1.00
14946;DHT22;7567;50.916;6.900;2023-07-16T12:16:34;25.80;1.00
14946;DHT22;7567;50.916;6.900;2023-07-16T12:19:00;26.20;1.00
14946;DHT22;7567;50.916;6.900;2023-07-16T12:21:25;26.50;1.00
14946;DHT22;7567;50.916;6.900;2023-07-16T12:23:51;26.30;1.00
14946;DHT22;7567;50.916;6.900;2023-07-16T12:26:17;26.20;1.00
14946;DHT22;7567;50.916;6.900;2023-07-16T12:28:43;25.90;1.00
14946;DHT22;7567;50.916;6.900;2023-07-16T12:31:08;26.10;1.00
14946;DHT22;7567;50.916;6.900;2023-07-16T12:33:34;26.00;1.00
14946;DHT22;7567;50.916;6.900;2023-07-16T12:36:00;26.10;1.00
14946;DHT22;7567;50.916;6.900;2023-07-16T12:38:26;26.40;1.00
14946;DHT22;7567;50.916;6.900;2023-07-16T12:40:51;26.40;1.00
14946;DHT22;7567;50.916;6.900;2023-07-16T12:43:17;26.40;1.00
14946;DHT22;7567;50.916;6.900;2023-07-16T12:45:43;26.50;1.00
14946;DHT22;7567;50.916;6.900;2023-07-16T12:48:09;26.50;1.00
14946;DHT22;7567;50.916;6.900;2023-07-16T12:50:34;26.30;1.00
14946;DHT22;7567;50.916;6.900;2023-07-16T12:53:00;26.10;1.00
14946;DHT22;7567;50.916;6.900;2023-07-16T12:55:26;25.90;1.00
14946;DHT22;7567;50.916;6.900;2023-07-16T12:57:52;25.90;1.00
14946;DHT22;7567;50.916;6.900;2023-07-16T13:00:17;26.00;1.00
14946;DHT22;7567;50.916;6.900;2023-07-16T13:02:44;26.10;1.00
14946;DHT22;7567;50.916;6.900;2023-07-16T13:05:13;25.90;1.00
14946;DHT22;7567;50.916;6.900;2023-07-16T13:07:39;26.00;99.90
14946;DHT22;7567;50.916;6.900;2023-07-16T13:10:05;26.30;1.00
14946;DHT22;7567;50.916;6.900;2023-07-16T13:12:31;26.40;99.90
14946;DHT22;7567;50.916;6.900;2023-07-16T13:14:57;26.30;1.00
14946;DHT22;7567;50.916;6.900;2023-07-16T13:17:23;26.50;1.00
14946;DHT22;7567;50.916;6.900;2023-07-16T13:19:49;26.90;99.90
14946;DHT22;7567;50.916;6.900;2023-07-16T13:22:14;26.60;99.90
14946;DHT22;7567;50.916;6.900;2023-07-16T13:24:40;26.40;1.00
14946;DHT22;7567;50.916;6.900;2023-07-16T13:27:06;26.30;99.90
14946;DHT22;7567;50.916;6.900;2023-07-16T13:29:32;25.90;1.00
14946;DHT22;7567;50.916;6.900;2023-07-16T13:31:58;25.90;1.00
14946;DHT22;7567;50.916;6.900;2023-07-16T13:34:24;26.00;1.00
14946;DHT22;7567;50.916;6.900;2023-07-16T13:36:49;26.00;1.00
14946;DHT22;7567;50.916;6.900;2023-07-16T13:39:15;26.10;99.90
14946;DHT22;7567;50.916;6.900;2023-07-16T13:41:42;26.30;99.90
14946;DHT22;7567;50.916;6.900;2023-07-16T13:44:08;26.30;1.00
14946;DHT22;7567;50.916;6.900;2023-07-16T13:46:33;26.20;1.00
14946;DHT22;7567;50.916;6.900;2023-07-16T13:48:59;26.20;99.90
14946;DHT22;7567;50.916;6.900;2023-07-16T13:51:26;26.00;1.00
14946;DHT22;7567;50.916;6.900;2023-07-16T13:53:51;26.20;1.00
14946;DHT22;7567;50.916;6.900;2023-07-16T13:56:17;26.20;99.90
14946;DHT22;7567;50.916;6.900;2023-07-16T13:58:43;26.30;1.00
14946;DHT22;7567;50.916;6.900;2023-07-16T14:01:09;26.40;1.00
14946;DHT22;7567;50.916;6.900;2023-07-16T14:03:34;26.50;99.90
14946;DHT22;7567;50.916;6.900;2023-07-16T14:06:00;26.30;99.90
14946;DHT22;7567;50.916;6.900;2023-07-16T14:08:26;26.10;99.90
14946;DHT22;7567;50.916;6.900;2023-07-16T14:10:53;26.00;1.00
14946;DHT22;7567;50.916;6.900;2023-07-16T14:13:19;25.90;99.90
14946;DHT22;7567;50.916;6.900;2023-07-16T14:15:45;25.70;99.90
14946;DHT22;7567;50.916;6.900;2023-07-16T14:18:14;25.90;99.90
14946;DHT22;7567;50.916;6.900;2023-07-16T14:20:40;26.00;99.90
14946;DHT22;7567;50.916;6.900;2023-07-16T14:23:05;26.40;99.90
14946;DHT22;7567;50.916;6.900;2023-07-16T14:25:31;26.60;70.60
14946;DHT22;7567;50.916;6.900;2023-07-16T14:27:57;26.60;99.90
14946;DHT22;7567;50.916;6.900;2023-07-16T14:30:23;26.50;54.70
14946;DHT22;7567;50.916;6.900;2023-07-16T14:32:48;26.60;99.90
14946;DHT22;7567;50.916;6.900;2023-07-16T14:35:14;26.50;1.00
14946;DHT22;7567;50.916;6.900;2023-07-16T14:37:40;26.60;1.00
14946;DHT22;7567;50.916;6.900;2023-07-16T14:40:07;26.60;1.00
14946;DHT22;7567;50.916;6.900;2023-07-16T14:42:34;26.40;1.00
14946;DHT22;7567;50.916;6.900;2023-07-16T14:45:00;26.60;1.00
14946;DHT22;7567;50.916;6.900;2023-07-16T14:47:26;26.60;1.00
14946;DHT22;7567;50.916;6.900;2023-07-16T14:49:52;26.50;1.00
14946;DHT22;7567;50.916;6.900;2023-07-16T14:52:19;26.20;1.00
14946;DHT22;7567;50.916;6.900;2023-07-16T14:54:45;26.10;1.00
14946;DHT22;7567;50.916;6.900;2023-07-16T14:57:11;25.80;1.00
14946;DHT22;7567;50.916;6.900;2023-07-16T14:59:37;25.80;1.00
14946;DHT22;7567;50.916;6.900;2023-07-16T15:02:04;25.80;1.00
14946;DHT22;7567;50.916;6.900;2023-07-16T15:04:30;25.90;1.00
14946;DHT22;7567;50.916;6.900;2023-07-16T15:06:56;25.90;1.00
14946;DHT22;7567;50.916;6.900;2023-07-16T15:09:22;25.90;1.00
14946;DHT22;7567;50.916;6.900;2023-07-16T15:11:48;25.90;1.00
14946;DHT22;7567;50.916;6.900;2023-07-16T15:14:14;25.90;1.00
14946;DHT22;7567;50.916;6.900;2023-07-16T15:16:40;26.10;1.00
14946;DHT22;7567;50.916;6.900;2023-07-16T15:19:06;26.30;1.00
14946;DHT22;7567;50.916;6.900;2023-07-16T15:21:33;26.30;1.00
14946;DHT22;7567;50.916;6.900;2023-07-16T15:23:59;26.60;1.00
14946;DHT22;7567;50.916;6.900;2023-07-16T15:26:25;26.50;1.00
14946;DHT22;7567;50.916;6.900;2023-07-16T15:28:52;26.70;1.00
14946;DHT22;7567;50.916;6.900;2023-07-16T15:31:18;26.90;1.00
14946;DHT22;7567;50.916;6.900;2023-07-16T15:33:45;26.90;1.00
14946;DHT22;7567;50.916;6.900;2023-07-16T15:36:11;26.80;1.00
14946;DHT22;7567;50.916;6.900;2023-07-16T15:38:36;26.80;1.00
14946;DHT22;7567;50.916;6.900;2023-07-16T15:41:02;26.60;1.00
14946;DHT22;7567;50.916;6.900;2023-07-16T15:43:29;26.30;1.00
14946;DHT22;7567;50.916;6.900;2023-07-16T15:45:55;26.20;1.00
14946;DHT22;7567;50.916;6.900;2023-07-16T15:48:21;26.10;1.00
14946;DHT22;7567;50.916;6.900;2023-07-16T15:50:46;26.20;1.00
14946;DHT22;7567;50.916;6.900;2023-07-16T15:53:12;26.20;1.00
14946;DHT22;7567;50.916;6.900;2023-07-16T15:55:38;26.20;1.00
14946;DHT22;7567;50.916;6.900;2023-07-16T15:58:04;26.10;1.00
14946;DHT22;7567;50.916;6.900;2023-07-16T16:00:30;26.00;1.00